sensor_id;sensor_type;location;lat;lon;timestamp;P1;durP1;ratioP1;P2;durP2;ratioP2
16837;SDS011;19510;54.486;9.046;2023-03-13T00:03:37;28.70;;;4.97;;
16837;SDS011;19510;54.486;9.046;2023-03-13T05:48:17;7.80;;;2.83;;
16837;SDS011;19510;54.486;9.046;2023-03-13T05:50:43;6.00;;;2.60;;
16837;SDS011;19510;54.486;9.046;2023-03-13T05:53:09;3.63;;;2.37;;
16837;SDS011;19510;54.486;9.046;2023-03-13T05:55:34;4.10;;;2.70;;
16837;SDS011;19510;54.486;9.046;2023-03-13T05:58:00;8.03;;;2.67;;
16837;SDS011;19510;54.486;9.046;2023-03-13T06:00:32;5.57;;;2.70;;
16837;SDS011;19510;54.486;9.046;2023-03-13T06:02:57;6.63;;;2.92;;
16837;SDS011;19510;54.486;9.046;2023-03-13T06:05:23;7.78;;;2.47;;
16837;SDS011;19510;54.486;9.046;2023-03-13T06:07:49;9.13;;;2.83;;
16837;SDS011;19510;54.486;9.046;2023-03-13T06:10:15;4.90;;;2.63;;
16837;SDS011;19510;54.486;9.046;2023-03-13T06:12:40;4.90;;;2.78;;
16837;SDS011;19510;54.486;9.046;2023-03-13T06:15:06;2.20;;;2.00;;
16837;SDS011;19510;54.486;9.046;2023-03-13T06:17:34;5.13;;;2.72;;
16837;SDS011;19510;54.486;9.046;2023-03-13T06:20:00;7.53;;;2.63;;
16837;SDS011;19510;54.486;9.046;2023-03-13T06:22:30;4.95;;;3.03;;
16837;SDS011;19510;54.486;9.046;2023-03-13T06:24:56;6.43;;;2.85;;
16837;SDS011;19510;54.486;9.046;2023-03-13T06:27:21;6.47;;;2.75;;
16837;SDS011;19510;54.486;9.046;2023-03-13T06:29:47;7.97;;;3.38;;
16837;SDS011;19510;54.486;9.046;2023-03-13T06:32:13;3.95;;;2.75;;
16837;SDS011;19510;54.486;9.046;2023-03-13T06:34:39;6.50;;;3.10;;
16837;SDS011;19510;54.486;9.046;2023-03-13T06:37:04;6.43;;;3.50;;
16837;SDS011;19510;54.486;9.046;2023-03-13T06:39:30;7.32;;;3.53;;
16837;SDS011;19510;54.486;9.046;2023-03-13T06:41:56;3.65;;;2.40;;
16837;SDS011;19510;54.486;9.046;2023-03-13T06:44:22;3.35;;;2.50;;
16837;SDS011;19510;54.486;9.046;2023-03-13T06:46:48;4.25;;;2.50;;
16837;SDS011;19510;54.486;9.046;2023-03-13T06:49:14;3.90;;;2.60;;
16837;SDS011;19510;54.486;9.046;2023-03-13T06:51:39;7.45;;;2.72;;
16837;SDS011;19510;54.486;9.046;2023-03-13T06:54:05;5.18;;;2.80;;
16837;SDS011;19510;54.486;9.046;2023-03-13T06:56:31;6.32;;;2.60;;
16837;SDS011;19510;54.486;9.046;2023-03-13T06:58:56;9.75;;;2.50;;
16837;SDS011;19510;54.486;9.046;2023-03-13T07:01:22;6.18;;;2.72;;
16837;SDS011;19510;54.486;9.046;2023-03-13T07:03:48;5.53;;;2.30;;
16837;SDS011;19510;54.486;9.046;2023-03-13T07:06:14;3.20;;;2.15;;
16837;SDS011;19510;54.486;9.046;2023-03-13T07:08:40;2.75;;;2.03;;
16837;SDS011;19510;54.486;9.046;2023-03-13T07:11:11;3.10;;;2.20;;
16837;SDS011;19510;54.486;9.046;2023-03-13T07:13:38;3.55;;;2.33;;
16837;SDS011;19510;54.486;9.046;2023-03-13T07:16:05;8.00;;;4.18;;
16837;SDS011;19510;54.486;9.046;2023-03-13T07:18:34;5.35;;;2.65;;
16837;SDS011;19510;54.486;9.046;2023-03-13T07:21:01;2.72;;;1.90;;
16837;SDS011;19510;54.486;9.046;2023-03-13T07:23:33;5.57;;;2.33;;
16837;SDS011;19510;54.486;9.046;2023-03-13T07:26:03;4.90;;;2.33;;
16837;SDS011;19510;54.486;9.046;2023-03-13T07:28:30;3.17;;;2.30;;
16837;SDS011;19510;54.486;9.046;2023-03-13T07:31:06;8.02;;;2.45;;
16837;SDS011;19510;54.486;9.046;2023-03-13T07:33:37;4.50;;;2.25;;
16837;SDS011;19510;54.486;9.046;2023-03-13T07:36:04;3.00;;;1.90;;
16837;SDS011;19510;54.486;9.046;2023-03-13T07:38:30;2.47;;;1.95;;
16837;SDS011;19510;54.486;9.046;2023-03-13T07:40:57;2.63;;;2.00;;
16837;SDS011;19510;54.486;9.046;2023-03-13T07:43:23;4.45;;;2.20;;
16837;SDS011;19510;54.486;9.046;2023-03-13T07:45:50;1.92;;;1.50;;
16837;SDS011;19510;54.486;9.046;2023-03-13T07:48:16;2.58;;;1.63;;
16837;SDS011;19510;54.486;9.046;2023-03-13T07:50:42;1.52;;;1.42;;
16837;SDS011;19510;54.486;9.046;2023-03-13T07:53:08;1.98;;;1.35;;
16837;SDS011;19510;54.486;9.046;2023-03-13T07:55:34;1.48;;;1.30;;
16837;SDS011;19510;54.486;9.046;2023-03-13T07:57:59;1.20;;;1.10;;
16837;SDS011;19510;54.486;9.046;2023-03-13T08:00:27;1.85;;;1.50;;
16837;SDS011;19510;54.486;9.046;2023-03-13T08:02:53;3.80;;;1.70;;
16837;SDS011;19510;54.486;9.046;2023-03-13T08:05:18;5.15;;;2.10;;
16837;SDS011;19510;54.486;9.046;2023-03-13T08:07:44;3.38;;;1.92;;
16837;SDS011;19510;54.486;9.046;2023-03-13T08:10:10;2.50;;;2.10;;
16837;SDS011;19510;54.486;9.046;2023-03-13T08:12:35;2.20;;;1.95;;
16837;SDS011;19510;54.486;9.046;2023-03-13T08:15:01;2.92;;;1.40;;
16837;SDS011;19510;54.486;9.046;2023-03-13T08:17:30;1.95;;;1.30;;
16837;SDS011;19510;54.486;9.046;2023-03-13T08:19:59;2.97;;;1.00;;
16837;SDS011;19510;54.486;9.046;2023-03-13T08:22:24;1.35;;;1.25;;
16837;SDS011;19510;54.486;9.046;2023-03-13T08:24:50;3.42;;;0.95;;
16837;SDS011;19510;54.486;9.046;2023-03-13T08:27:16;2.00;;;0.80;;
16837;SDS011;19510;54.486;9.046;2023-03-13T08:29:41;0.68;;;0.68;;
16837;SDS011;19510;54.486;9.046;2023-03-13T08:32:07;1.05;;;1.00;;
16837;SDS011;19510;54.486;9.046;2023-03-13T08:34:33;1.55;;;1.00;;
16837;SDS011;19510;54.486;9.046;2023-03-13T08:37:00;0.70;;;0.70;;
16837;SDS011;19510;54.486;9.046;2023-03-13T08:39:26;0.88;;;0.82;;
16837;SDS011;19510;54.486;9.046;2023-03-13T08:41:52;1.02;;;0.90;;
16837;SDS011;19510;54.486;9.046;2023-03-13T08:44:18;3.28;;;1.48;;
16837;SDS011;19510;54.486;9.046;2023-03-13T08:46:44;2.33;;;1.48;;
16837;SDS011;19510;54.486;9.046;2023-03-13T08:49:10;2.60;;;1.50;;
16837;SDS011;19510;54.486;9.046;2023-03-13T08:51:37;3.10;;;1.98;;
16837;SDS011;19510;54.486;9.046;2023-03-13T08:54:03;4.18;;;2.10;;
16837;SDS011;19510;54.486;9.046;2023-03-13T08:56:35;4.95;;;2.25;;
16837;SDS011;19510;54.486;9.046;2023-03-13T08:59:02;4.35;;;2.13;;
16837;SDS011;19510;54.486;9.046;2023-03-13T09:01:29;6.85;;;2.65;;
16837;SDS011;19510;54.486;9.046;2023-03-13T09:03:56;6.47;;;2.25;;
16837;SDS011;19510;54.486;9.046;2023-03-13T09:06:22;3.25;;;2.17;;
16837;SDS011;19510;54.486;9.046;2023-03-13T09:08:48;6.78;;;2.55;;
16837;SDS011;19510;54.486;9.046;2023-03-13T09:11:15;5.82;;;2.17;;
16837;SDS011;19510;54.486;9.046;2023-03-13T09:13:43;3.60;;;2.20;;
16837;SDS011;19510;54.486;9.046;2023-03-13T09:16:11;5.45;;;2.22;;
16837;SDS011;19510;54.486;9.046;2023-03-13T09:18:42;3.97;;;1.98;;
16837;SDS011;19510;54.486;9.046;2023-03-13T09:21:09;5.60;;;2.92;;
16837;SDS011;19510;54.486;9.046;2023-03-13T09:23:38;8.13;;;3.30;;
16837;SDS011;19510;54.486;9.046;2023-03-13T09:26:04;11.05;;;3.53;;
16837;SDS011;19510;54.486;9.046;2023-03-13T09:28:31;20.42;;;4.38;;
16837;SDS011;19510;54.486;9.046;2023-03-13T09:33:43;10.70;;;4.15;;
16837;SDS011;19510;54.486;9.046;2023-03-13T09:36:09;8.68;;;3.33;;
16837;SDS011;19510;54.486;9.046;2023-03-13T09:38:36;16.33;;;4.00;;
16837;SDS011;19510;54.486;9.046;2023-03-13T09:46:58;11.02;;;3.75;;
16837;SDS011;19510;54.486;9.046;2023-03-13T09:54:45;13.95;;;3.72;;
16837;SDS011;19510;54.486;9.046;2023-03-13T09:57:43;14.20;;;3.50;;
16837;SDS011;19510;54.486;9.046;2023-03-13T10:00:18;9.10;;;3.78;;
16837;SDS011;19510;54.486;9.046;2023-03-13T10:02:54;13.63;;;4.20;;
16837;SDS011;19510;54.486;9.046;2023-03-13T10:05:27;9.20;;;2.80;;
16837;SDS011;19510;54.486;9.046;2023-03-13T10:08:16;12.43;;;2.90;;
16837;SDS011;19510;54.486;9.046;2023-03-13T10:10:43;6.95;;;2.88;;
16837;SDS011;19510;54.486;9.046;2023-03-13T10:14:00;9.95;;;3.03;;
16837;SDS011;19510;54.486;9.046;2023-03-13T10:16:10;14.80;;;3.17;;
16837;SDS011;19510;54.486;9.046;2023-03-13T10:18:46;7.72;;;2.83;;
16837;SDS011;19510;54.486;9.046;2023-03-13T10:21:17;10.27;;;3.58;;
16837;SDS011;19510;54.486;9.046;2023-03-13T10:26:26;11.90;;;2.97;;
16837;SDS011;19510;54.486;9.046;2023-03-13T10:28:55;10.95;;;3.33;;
16837;SDS011;19510;54.486;9.046;2023-03-13T10:34:08;11.68;;;3.15;;
16837;SDS011;19510;54.486;9.046;2023-03-13T10:36:42;8.30;;;2.67;;
16837;SDS011;19510;54.486;9.046;2023-03-13T10:39:14;5.82;;;1.90;;
16837;SDS011;19510;54.486;9.046;2023-03-13T10:41:50;8.40;;;2.33;;
16837;SDS011;19510;54.486;9.046;2023-03-13T10:44:23;10.05;;;2.63;;
16837;SDS011;19510;54.486;9.046;2023-03-13T10:46:58;9.38;;;2.08;;
16837;SDS011;19510;54.486;9.046;2023-03-13T10:49:26;5.57;;;2.40;;
16837;SDS011;19510;54.486;9.046;2023-03-13T10:54:27;5.70;;;1.95;;
16837;SDS011;19510;54.486;9.046;2023-03-13T10:57:08;9.82;;;2.65;;
16837;SDS011;19510;54.486;9.046;2023-03-13T10:59:45;7.20;;;2.10;;
16837;SDS011;19510;54.486;9.046;2023-03-13T11:02:34;8.80;;;2.17;;
16837;SDS011;19510;54.486;9.046;2023-03-13T11:05:25;10.82;;;2.47;;
16837;SDS011;19510;54.486;9.046;2023-03-13T11:07:48;9.45;;;2.63;;
16837;SDS011;19510;54.486;9.046;2023-03-13T11:10:16;8.07;;;2.45;;
16837;SDS011;19510;54.486;9.046;2023-03-13T11:12:44;9.73;;;2.33;;
16837;SDS011;19510;54.486;9.046;2023-03-13T11:15:15;15.07;;;2.78;;
16837;SDS011;19510;54.486;9.046;2023-03-13T11:18:03;6.43;;;2.13;;
16837;SDS011;19510;54.486;9.046;2023-03-13T11:20:57;14.70;;;2.50;;
16837;SDS011;19510;54.486;9.046;2023-03-13T11:23:27;7.35;;;1.90;;
16837;SDS011;19510;54.486;9.046;2023-03-13T11:31:14;11.65;;;2.35;;
16837;SDS011;19510;54.486;9.046;2023-03-13T11:36:35;9.70;;;2.13;;
16837;SDS011;19510;54.486;9.046;2023-03-13T11:41:58;12.02;;;2.35;;
16837;SDS011;19510;54.486;9.046;2023-03-13T12:00:46;8.98;;;2.15;;
16837;SDS011;19510;54.486;9.046;2023-03-13T12:06:14;9.25;;;2.03;;
16837;SDS011;19510;54.486;9.046;2023-03-13T12:08:52;10.25;;;2.10;;
16837;SDS011;19510;54.486;9.046;2023-03-13T12:11:51;8.90;;;2.17;;
16837;SDS011;19510;54.486;9.046;2023-03-13T12:15:13;11.18;;;2.45;;
16837;SDS011;19510;54.486;9.046;2023-03-13T12:19:47;7.10;;;2.45;;
16837;SDS011;19510;54.486;9.046;2023-03-13T12:22:34;11.98;;;1.98;;
16837;SDS011;19510;54.486;9.046;2023-03-13T12:25:09;12.05;;;2.45;;
16837;SDS011;19510;54.486;9.046;2023-03-13T12:27:42;10.43;;;2.15;;
16837;SDS011;19510;54.486;9.046;2023-03-13T12:33:20;13.48;;;2.83;;
16837;SDS011;19510;54.486;9.046;2023-03-13T12:35:52;10.75;;;2.15;;
16837;SDS011;19510;54.486;9.046;2023-03-13T12:39:06;10.70;;;2.47;;
16837;SDS011;19510;54.486;9.046;2023-03-13T12:43:56;12.13;;;3.08;;
16837;SDS011;19510;54.486;9.046;2023-03-13T12:55:03;16.50;;;2.92;;
16837;SDS011;19510;54.486;9.046;2023-03-13T13:00:30;23.23;;;3.45;;
16837;SDS011;19510;54.486;9.046;2023-03-13T13:03:00;15.75;;;3.17;;
16837;SDS011;19510;54.486;9.046;2023-03-13T13:05:27;18.15;;;3.00;;
16837;SDS011;19510;54.486;9.046;2023-03-13T13:07:53;18.27;;;3.38;;
16837;SDS011;19510;54.486;9.046;2023-03-13T13:10:25;23.45;;;3.58;;
16837;SDS011;19510;54.486;9.046;2023-03-13T13:15:43;17.33;;;3.28;;
16837;SDS011;19510;54.486;9.046;2023-03-13T13:23:31;15.55;;;4.25;;
16837;SDS011;19510;54.486;9.046;2023-03-13T13:29:00;18.20;;;3.08;;
16837;SDS011;19510;54.486;9.046;2023-03-13T13:34:59;14.75;;;2.72;;
16837;SDS011;19510;54.486;9.046;2023-03-13T13:39:46;18.23;;;3.15;;
16837;SDS011;19510;54.486;9.046;2023-03-13T13:47:28;18.02;;;2.83;;
16837;SDS011;19510;54.486;9.046;2023-03-13T13:49:58;20.55;;;4.45;;
16837;SDS011;19510;54.486;9.046;2023-03-13T13:55:28;18.25;;;3.22;;
16837;SDS011;19510;54.486;9.046;2023-03-13T13:58:01;24.50;;;4.20;;
16837;SDS011;19510;54.486;9.046;2023-03-13T14:00:42;16.35;;;2.85;;
16837;SDS011;19510;54.486;9.046;2023-03-13T14:03:20;12.45;;;3.55;;
16837;SDS011;19510;54.486;9.046;2023-03-13T14:05:48;14.75;;;3.22;;
16837;SDS011;19510;54.486;9.046;2023-03-13T14:08:35;16.27;;;3.40;;
16837;SDS011;19510;54.486;9.046;2023-03-13T14:11:22;19.67;;;3.13;;
16837;SDS011;19510;54.486;9.046;2023-03-13T14:16:34;18.73;;;3.95;;
16837;SDS011;19510;54.486;9.046;2023-03-13T14:19:01;14.57;;;2.55;;
16837;SDS011;19510;54.486;9.046;2023-03-13T14:21:28;21.92;;;3.53;;
16837;SDS011;19510;54.486;9.046;2023-03-13T14:23:56;19.95;;;3.50;;
16837;SDS011;19510;54.486;9.046;2023-03-13T14:26:23;21.60;;;4.35;;
16837;SDS011;19510;54.486;9.046;2023-03-13T14:29:00;19.83;;;3.63;;
16837;SDS011;19510;54.486;9.046;2023-03-13T14:31:28;26.88;;;4.85;;
16837;SDS011;19510;54.486;9.046;2023-03-13T14:34:03;21.77;;;4.18;;
16837;SDS011;19510;54.486;9.046;2023-03-13T14:39:50;20.52;;;4.10;;
16837;SDS011;19510;54.486;9.046;2023-03-13T14:42:16;19.42;;;4.10;;
16837;SDS011;19510;54.486;9.046;2023-03-13T14:44:44;20.60;;;3.97;;
16837;SDS011;19510;54.486;9.046;2023-03-13T14:47:19;20.75;;;4.03;;
16837;SDS011;19510;54.486;9.046;2023-03-13T14:49:54;22.08;;;3.88;;
16837;SDS011;19510;54.486;9.046;2023-03-13T14:52:22;19.40;;;4.05;;
16837;SDS011;19510;54.486;9.046;2023-03-13T14:54:59;13.95;;;2.85;;
16837;SDS011;19510;54.486;9.046;2023-03-13T14:57:56;22.45;;;4.18;;
16837;SDS011;19510;54.486;9.046;2023-03-13T15:00:48;24.70;;;3.30;;
16837;SDS011;19510;54.486;9.046;2023-03-13T15:05:41;22.85;;;4.30;;
16837;SDS011;19510;54.486;9.046;2023-03-13T15:08:12;20.60;;;2.95;;
16837;SDS011;19510;54.486;9.046;2023-03-13T15:10:39;19.00;;;3.20;;
16837;SDS011;19510;54.486;9.046;2023-03-13T15:13:25;21.08;;;3.63;;
16837;SDS011;19510;54.486;9.046;2023-03-13T15:15:58;14.93;;;3.63;;
16837;SDS011;19510;54.486;9.046;2023-03-13T15:18:25;13.35;;;3.10;;
16837;SDS011;19510;54.486;9.046;2023-03-13T15:23:20;18.35;;;2.58;;
16837;SDS011;19510;54.486;9.046;2023-03-13T15:25:46;17.13;;;3.22;;
16837;SDS011;19510;54.486;9.046;2023-03-13T15:28:17;18.90;;;3.10;;
16837;SDS011;19510;54.486;9.046;2023-03-13T15:30:44;17.60;;;3.40;;
16837;SDS011;19510;54.486;9.046;2023-03-13T15:33:13;13.95;;;3.05;;
16837;SDS011;19510;54.486;9.046;2023-03-13T15:35:43;21.60;;;4.72;;
16837;SDS011;19510;54.486;9.046;2023-03-13T15:38:15;19.83;;;3.38;;
16837;SDS011;19510;54.486;9.046;2023-03-13T15:40:49;19.35;;;3.58;;
16837;SDS011;19510;54.486;9.046;2023-03-13T15:43:15;14.95;;;3.75;;
16837;SDS011;19510;54.486;9.046;2023-03-13T15:45:42;15.45;;;3.15;;
16837;SDS011;19510;54.486;9.046;2023-03-13T15:50:48;17.20;;;3.42;;
16837;SDS011;19510;54.486;9.046;2023-03-13T15:53:19;23.70;;;4.30;;
16837;SDS011;19510;54.486;9.046;2023-03-13T15:55:46;15.48;;;3.05;;
16837;SDS011;19510;54.486;9.046;2023-03-13T15:58:13;22.40;;;3.75;;
16837;SDS011;19510;54.486;9.046;2023-03-13T16:00:40;23.52;;;3.58;;
16837;SDS011;19510;54.486;9.046;2023-03-13T16:03:13;23.13;;;3.70;;
16837;SDS011;19510;54.486;9.046;2023-03-13T16:05:41;18.42;;;4.70;;
16837;SDS011;19510;54.486;9.046;2023-03-13T16:08:14;14.07;;;3.58;;
16837;SDS011;19510;54.486;9.046;2023-03-13T16:10:45;17.83;;;3.10;;
16837;SDS011;19510;54.486;9.046;2023-03-13T16:13:14;18.08;;;3.08;;
16837;SDS011;19510;54.486;9.046;2023-03-13T16:15:40;24.10;;;3.78;;
16837;SDS011;19510;54.486;9.046;2023-03-13T16:18:06;14.15;;;3.65;;
16837;SDS011;19510;54.486;9.046;2023-03-13T16:20:38;24.73;;;4.43;;
16837;SDS011;19510;54.486;9.046;2023-03-13T16:23:03;21.40;;;4.28;;
16837;SDS011;19510;54.486;9.046;2023-03-13T16:25:29;21.17;;;4.47;;
16837;SDS011;19510;54.486;9.046;2023-03-13T16:27:57;19.20;;;4.13;;
16837;SDS011;19510;54.486;9.046;2023-03-13T16:30:25;23.80;;;5.03;;
16837;SDS011;19510;54.486;9.046;2023-03-13T16:32:56;18.92;;;3.90;;
16837;SDS011;19510;54.486;9.046;2023-03-13T16:35:23;23.05;;;4.13;;
16837;SDS011;19510;54.486;9.046;2023-03-13T16:37:51;16.08;;;4.28;;
16837;SDS011;19510;54.486;9.046;2023-03-13T16:40:18;18.58;;;3.40;;
16837;SDS011;19510;54.486;9.046;2023-03-13T16:42:47;15.80;;;3.20;;
16837;SDS011;19510;54.486;9.046;2023-03-13T16:45:12;27.48;;;5.13;;
16837;SDS011;19510;54.486;9.046;2023-03-13T16:47:41;21.13;;;4.00;;
16837;SDS011;19510;54.486;9.046;2023-03-13T16:52:50;13.32;;;3.53;;
16837;SDS011;19510;54.486;9.046;2023-03-13T16:55:17;23.70;;;3.00;;
16837;SDS011;19510;54.486;9.046;2023-03-13T16:57:43;18.70;;;4.07;;
16837;SDS011;19510;54.486;9.046;2023-03-13T17:00:13;22.77;;;3.90;;
16837;SDS011;19510;54.486;9.046;2023-03-13T17:02:43;19.73;;;2.90;;
16837;SDS011;19510;54.486;9.046;2023-03-13T17:05:09;18.02;;;3.85;;
16837;SDS011;19510;54.486;9.046;2023-03-13T17:07:39;18.17;;;4.57;;
16837;SDS011;19510;54.486;9.046;2023-03-13T17:12:47;23.67;;;4.85;;
16837;SDS011;19510;54.486;9.046;2023-03-13T17:15:13;22.10;;;4.72;;
16837;SDS011;19510;54.486;9.046;2023-03-13T17:17:39;19.10;;;4.50;;
16837;SDS011;19510;54.486;9.046;2023-03-13T17:20:12;21.83;;;4.00;;
16837;SDS011;19510;54.486;9.046;2023-03-13T17:22:39;22.48;;;3.97;;
16837;SDS011;19510;54.486;9.046;2023-03-13T17:25:05;18.65;;;4.78;;
16837;SDS011;19510;54.486;9.046;2023-03-13T17:27:30;22.90;;;3.78;;
16837;SDS011;19510;54.486;9.046;2023-03-13T17:29:57;20.45;;;3.78;;
16837;SDS011;19510;54.486;9.046;2023-03-13T17:32:22;25.25;;;3.92;;
16837;SDS011;19510;54.486;9.046;2023-03-13T17:34:49;23.42;;;3.80;;
16837;SDS011;19510;54.486;9.046;2023-03-13T17:37:17;27.92;;;4.20;;
16837;SDS011;19510;54.486;9.046;2023-03-13T17:39:45;24.95;;;4.28;;
16837;SDS011;19510;54.486;9.046;2023-03-13T17:42:11;17.25;;;3.88;;
16837;SDS011;19510;54.486;9.046;2023-03-13T17:44:40;22.00;;;4.20;;
16837;SDS011;19510;54.486;9.046;2023-03-13T17:47:10;25.00;;;5.30;;
16837;SDS011;19510;54.486;9.046;2023-03-13T17:49:40;22.90;;;3.47;;
16837;SDS011;19510;54.486;9.046;2023-03-13T17:52:09;28.98;;;4.60;;
16837;SDS011;19510;54.486;9.046;2023-03-13T17:54:37;27.65;;;4.85;;
16837;SDS011;19510;54.486;9.046;2023-03-13T17:57:08;25.27;;;4.82;;
16837;SDS011;19510;54.486;9.046;2023-03-13T17:59:40;24.77;;;4.07;;
16837;SDS011;19510;54.486;9.046;2023-03-13T18:02:09;20.55;;;4.55;;
16837;SDS011;19510;54.486;9.046;2023-03-13T18:04:38;27.98;;;5.32;;
16837;SDS011;19510;54.486;9.046;2023-03-13T18:09:50;19.20;;;3.17;;
16837;SDS011;19510;54.486;9.046;2023-03-13T18:12:17;19.77;;;2.97;;
16837;SDS011;19510;54.486;9.046;2023-03-13T18:14:45;26.38;;;4.15;;
16837;SDS011;19510;54.486;9.046;2023-03-13T18:17:15;18.52;;;3.78;;
16837;SDS011;19510;54.486;9.046;2023-03-13T18:19:46;19.55;;;4.18;;
16837;SDS011;19510;54.486;9.046;2023-03-13T18:22:13;21.80;;;3.67;;
16837;SDS011;19510;54.486;9.046;2023-03-13T18:24:43;28.92;;;4.32;;
16837;SDS011;19510;54.486;9.046;2023-03-13T18:27:10;21.70;;;4.47;;
16837;SDS011;19510;54.486;9.046;2023-03-13T18:29:40;22.08;;;4.43;;
16837;SDS011;19510;54.486;9.046;2023-03-13T18:32:14;30.33;;;5.07;;
16837;SDS011;19510;54.486;9.046;2023-03-13T18:34:41;26.20;;;5.13;;
16837;SDS011;19510;54.486;9.046;2023-03-13T18:40:08;29.98;;;4.97;;
16837;SDS011;19510;54.486;9.046;2023-03-13T18:42:38;31.38;;;4.28;;
16837;SDS011;19510;54.486;9.046;2023-03-13T18:45:05;20.55;;;4.55;;
16837;SDS011;19510;54.486;9.046;2023-03-13T18:47:31;22.83;;;5.18;;
16837;SDS011;19510;54.486;9.046;2023-03-13T18:49:58;23.85;;;3.83;;
16837;SDS011;19510;54.486;9.046;2023-03-13T18:52:26;23.95;;;4.90;;
16837;SDS011;19510;54.486;9.046;2023-03-13T18:54:55;24.65;;;3.90;;
16837;SDS011;19510;54.486;9.046;2023-03-13T18:57:21;26.98;;;4.30;;
16837;SDS011;19510;54.486;9.046;2023-03-13T18:59:51;26.92;;;5.82;;
16837;SDS011;19510;54.486;9.046;2023-03-13T19:02:17;18.20;;;3.72;;
16837;SDS011;19510;54.486;9.046;2023-03-13T19:04:45;20.25;;;3.58;;
16837;SDS011;19510;54.486;9.046;2023-03-13T19:07:29;26.00;;;3.95;;
16837;SDS011;19510;54.486;9.046;2023-03-13T19:09:54;25.63;;;4.15;;
16837;SDS011;19510;54.486;9.046;2023-03-13T19:12:20;24.52;;;4.05;;
16837;SDS011;19510;54.486;9.046;2023-03-13T19:14:46;20.35;;;4.43;;
16837;SDS011;19510;54.486;9.046;2023-03-13T19:17:19;24.50;;;4.90;;
16837;SDS011;19510;54.486;9.046;2023-03-13T19:19:53;27.27;;;4.10;;
16837;SDS011;19510;54.486;9.046;2023-03-13T19:22:23;21.83;;;4.10;;
16837;SDS011;19510;54.486;9.046;2023-03-13T19:24:50;25.60;;;4.95;;
16837;SDS011;19510;54.486;9.046;2023-03-13T19:27:15;26.65;;;4.22;;
16837;SDS011;19510;54.486;9.046;2023-03-13T19:29:41;24.02;;;4.53;;
16837;SDS011;19510;54.486;9.046;2023-03-13T19:32:14;19.38;;;4.22;;
16837;SDS011;19510;54.486;9.046;2023-03-13T19:34:42;28.60;;;4.20;;
16837;SDS011;19510;54.486;9.046;2023-03-13T19:37:11;25.10;;;4.05;;
16837;SDS011;19510;54.486;9.046;2023-03-13T19:39:40;33.70;;;5.32;;
16837;SDS011;19510;54.486;9.046;2023-03-13T19:42:06;22.85;;;5.65;;
16837;SDS011;19510;54.486;9.046;2023-03-13T19:44:37;20.27;;;3.28;;
16837;SDS011;19510;54.486;9.046;2023-03-13T19:47:04;18.20;;;3.65;;
16837;SDS011;19510;54.486;9.046;2023-03-13T19:49:30;30.50;;;4.88;;
16837;SDS011;19510;54.486;9.046;2023-03-13T19:51:56;18.90;;;4.32;;
16837;SDS011;19510;54.486;9.046;2023-03-13T19:54:22;23.13;;;4.65;;
16837;SDS011;19510;54.486;9.046;2023-03-13T19:56:50;23.35;;;4.10;;
16837;SDS011;19510;54.486;9.046;2023-03-13T20:01:55;21.42;;;4.43;;
16837;SDS011;19510;54.486;9.046;2023-03-13T20:04:21;21.58;;;4.15;;
16837;SDS011;19510;54.486;9.046;2023-03-13T20:06:49;24.27;;;4.25;;
16837;SDS011;19510;54.486;9.046;2023-03-13T20:09:15;22.55;;;5.10;;
16837;SDS011;19510;54.486;9.046;2023-03-13T20:11:42;18.98;;;3.67;;
16837;SDS011;19510;54.486;9.046;2023-03-13T20:14:08;27.92;;;4.35;;
16837;SDS011;19510;54.486;9.046;2023-03-13T20:16:35;17.83;;;3.40;;
16837;SDS011;19510;54.486;9.046;2023-03-13T20:19:01;30.13;;;4.43;;
16837;SDS011;19510;54.486;9.046;2023-03-13T20:21:28;22.52;;;3.72;;
16837;SDS011;19510;54.486;9.046;2023-03-13T20:23:55;34.97;;;4.75;;
16837;SDS011;19510;54.486;9.046;2023-03-13T20:26:24;20.33;;;3.53;;
16837;SDS011;19510;54.486;9.046;2023-03-13T20:28:52;28.27;;;4.32;;
16837;SDS011;19510;54.486;9.046;2023-03-13T20:31:20;22.15;;;3.17;;
16837;SDS011;19510;54.486;9.046;2023-03-13T20:33:48;23.02;;;4.18;;
16837;SDS011;19510;54.486;9.046;2023-03-13T20:36:15;18.35;;;3.42;;
16837;SDS011;19510;54.486;9.046;2023-03-13T20:38:43;21.73;;;4.22;;
16837;SDS011;19510;54.486;9.046;2023-03-13T20:41:09;28.48;;;4.20;;
16837;SDS011;19510;54.486;9.046;2023-03-13T20:43:35;20.58;;;4.47;;
16837;SDS011;19510;54.486;9.046;2023-03-13T20:46:02;23.92;;;4.15;;
16837;SDS011;19510;54.486;9.046;2023-03-13T20:48:30;24.42;;;6.45;;
16837;SDS011;19510;54.486;9.046;2023-03-13T20:50:58;26.48;;;3.50;;
16837;SDS011;19510;54.486;9.046;2023-03-13T20:53:26;19.90;;;3.08;;
16837;SDS011;19510;54.486;9.046;2023-03-13T20:55:52;19.23;;;4.65;;
16837;SDS011;19510;54.486;9.046;2023-03-13T20:58:21;21.95;;;4.82;;
16837;SDS011;19510;54.486;9.046;2023-03-13T21:00:48;26.95;;;3.97;;
16837;SDS011;19510;54.486;9.046;2023-03-13T21:03:13;22.42;;;4.20;;
16837;SDS011;19510;54.486;9.046;2023-03-13T21:05:41;25.20;;;3.88;;
16837;SDS011;19510;54.486;9.046;2023-03-13T21:08:08;17.67;;;3.70;;
16837;SDS011;19510;54.486;9.046;2023-03-13T21:10:35;23.17;;;4.00;;
16837;SDS011;19510;54.486;9.046;2023-03-13T21:13:07;11.80;;;3.33;;
16837;SDS011;19510;54.486;9.046;2023-03-13T21:15:37;22.15;;;4.13;;
16837;SDS011;19510;54.486;9.046;2023-03-13T21:18:04;14.27;;;3.25;;
16837;SDS011;19510;54.486;9.046;2023-03-13T21:20:30;24.67;;;3.92;;
16837;SDS011;19510;54.486;9.046;2023-03-13T21:22:56;21.13;;;4.03;;
16837;SDS011;19510;54.486;9.046;2023-03-13T21:25:22;24.95;;;3.22;;
16837;SDS011;19510;54.486;9.046;2023-03-13T21:27:48;14.68;;;3.38;;
16837;SDS011;19510;54.486;9.046;2023-03-13T21:30:15;21.10;;;2.88;;
16837;SDS011;19510;54.486;9.046;2023-03-13T21:32:43;11.77;;;3.13;;
16837;SDS011;19510;54.486;9.046;2023-03-13T21:35:10;24.63;;;3.53;;
16837;SDS011;19510;54.486;9.046;2023-03-13T21:37:36;19.15;;;3.67;;
16837;SDS011;19510;54.486;9.046;2023-03-13T21:40:04;33.45;;;4.25;;
16837;SDS011;19510;54.486;9.046;2023-03-13T21:42:33;23.65;;;4.78;;
16837;SDS011;19510;54.486;9.046;2023-03-13T21:45:00;16.42;;;3.78;;
16837;SDS011;19510;54.486;9.046;2023-03-13T21:47:26;23.92;;;3.47;;
16837;SDS011;19510;54.486;9.046;2023-03-13T21:49:52;21.35;;;3.72;;
16837;SDS011;19510;54.486;9.046;2023-03-13T21:52:19;23.58;;;4.75;;
16837;SDS011;19510;54.486;9.046;2023-03-13T21:54:46;24.20;;;3.42;;
16837;SDS011;19510;54.486;9.046;2023-03-13T21:57:12;19.90;;;3.72;;
16837;SDS011;19510;54.486;9.046;2023-03-13T21:59:38;22.08;;;3.70;;
16837;SDS011;19510;54.486;9.046;2023-03-13T22:02:04;19.40;;;3.55;;
16837;SDS011;19510;54.486;9.046;2023-03-13T22:04:29;21.65;;;3.50;;
16837;SDS011;19510;54.486;9.046;2023-03-13T22:06:55;21.80;;;4.00;;
16837;SDS011;19510;54.486;9.046;2023-03-13T22:09:21;27.08;;;4.20;;
16837;SDS011;19510;54.486;9.046;2023-03-13T22:11:47;24.52;;;4.30;;
16837;SDS011;19510;54.486;9.046;2023-03-13T22:14:12;20.05;;;3.40;;
16837;SDS011;19510;54.486;9.046;2023-03-13T22:16:38;23.20;;;2.72;;
16837;SDS011;19510;54.486;9.046;2023-03-13T22:19:05;17.30;;;3.25;;
16837;SDS011;19510;54.486;9.046;2023-03-13T22:21:31;20.25;;;4.15;;
16837;SDS011;19510;54.486;9.046;2023-03-13T22:23:56;27.13;;;4.25;;
16837;SDS011;19510;54.486;9.046;2023-03-13T22:26:22;21.02;;;3.97;;
16837;SDS011;19510;54.486;9.046;2023-03-13T22:28:48;19.02;;;4.60;;
16837;SDS011;19510;54.486;9.046;2023-03-13T22:31:14;33.35;;;3.95;;
16837;SDS011;19510;54.486;9.046;2023-03-13T22:33:39;28.35;;;4.00;;
16837;SDS011;19510;54.486;9.046;2023-03-13T22:36:05;21.70;;;3.60;;
16837;SDS011;19510;54.486;9.046;2023-03-13T22:38:32;21.40;;;4.13;;